PARS

Details ICAO PARS (RSH)
Name RUSSIAN MISSION
Region USA (Alaska)
Timezone America/Anchorage (UTC-9.0)
Plans Departing 2
Arriving 2
Stats Elevation 51 ft / 16 m (AMSL)
Location 61.774890° -161.319399°
Runways 1
Magnetic Variation 11.786° E
Sunrise 2017-12-15 20:03:00 UTC / 2017-12-15 11:03:00 Local
Sunset 2017-12-16 01:21:04 UTC / 2017-12-15 16:21:04 Local
Advertisement - Login to hide

Runways

ID Width Length Bearing (true) Bearing (mag) Surface Threshold Offset Overrun Length
17 98 ft / 30 m 3,593 ft / 1,095 m 187.43° 175.64° Gravel 0 ft / 0 m 0 ft / 0 m
35 98 ft / 30 m 3,593 ft / 1,095 m 7.43° 355.64° Gravel 0 ft / 0 m 0 ft / 0 m

Map

Weather


0- 5 10 15 20 25 30 35+ Temperature / ° C

Clouds and Precipitation
Forecast for 2017-12-16 06:00 UTC. Updated 2 hours ago

Ground ~20,000 ft ~40,000 ft Winds

METAR

PARS 160656Z AUTO 10009G17KT 10SM OVC046 01/M01 A2888 RMK AO2 SLP784 T00111011 FZRANO $

TAF

Not found

Frequencies

Recorded 118.37 MHz ASOS
Unicom 122.90 MHz CTAF
Warning: Do not use this data for real-world aviation or navigation. No guarantee of current accuracy is given.